Time;durP1;ratioP1;P1;durP2;ratioP2;P2;SDS_P1;SDS_P2;PMS_P1;PMS_P2;Temp;Humidity;BMP_temperature;BMP_pressure;BME280_temperature;BME280_humidity;BME280_pressure;Samples;Min_cycle;Max_cycle;Signal;HPM_P1;HPM_P2
2022/10/08 00:01:35;;;;;;;1999.90;999.90;;;10.50;99.90;;;;;;6726312;88;20202;-78
2022/10/08 00:11:38;;;;;;;1999.90;999.90;;;10.40;99.90;;;;;;6728573;88;20185;-79
2022/10/08 00:21:41;;;;;;;1999.90;999.90;;;10.40;99.90;;;;;;6729887;88;20223;-78
2022/10/08 00:31:44;;;;;;;1999.90;999.90;;;10.50;99.90;;;;;;6721287;88;20312;-78
2022/10/08 00:41:47;;;;;;;1999.90;999.90;;;10.70;99.90;;;;;;6708817;88;20290;-78
2022/10/08 00:51:54;;;;;;;1999.90;999.90;;;10.50;99.90;;;;;;6708511;88;20699;-78
2022/10/08 01:01:55;;;;;;;1999.90;999.90;;;10.30;99.90;;;;;;6705084;88;20193;-78
2022/10/08 01:12:17;;;;;;;1999.90;999.90;;;10.30;99.90;;;;;;6702076;88;20193;-78
2022/10/08 01:22:51;;;;;;;1999.90;999.90;;;10.10;99.90;;;;;;6708161;88;20194;-78
2022/10/08 01:33:02;;;;;;;1999.90;999.90;;;10.10;99.90;;;;;;6709143;88;20225;-79
2022/10/08 01:43:06;;;;;;;1999.90;999.90;;;10.10;99.90;;;;;;6708275;88;20235;-79
2022/10/08 01:53:11;;;;;;;1999.90;999.90;;;10.10;99.90;;;;;;6711967;88;20198;-78
2022/10/08 02:03:12;;;;;;;1999.90;999.90;;;9.90;99.90;;;;;;6711305;88;20186;-79
2022/10/08 02:13:13;;;;;;;1999.90;999.90;;;9.70;99.90;;;;;;6710505;88;20591;-79
2022/10/08 02:23:28;;;;;;;1999.90;999.90;;;9.70;99.90;;;;;;6710403;88;20225;-79
2022/10/08 02:33:38;;;;;;;1999.90;999.90;;;9.60;99.90;;;;;;6705995;88;20253;-79
2022/10/08 02:43:45;;;;;;;1999.90;999.90;;;9.20;99.90;;;;;;6707828;88;20212;-79
2022/10/08 02:53:48;;;;;;;1999.90;999.90;;;9.20;99.90;;;;;;6717004;88;20186;-79
2022/10/08 03:03:57;;;;;;;1999.90;999.90;;;9.30;99.90;;;;;;6711264;88;20203;-78
2022/10/08 03:14:00;;;;;;;1999.90;999.90;;;9.30;99.90;;;;;;6714782;88;20199;-78
2022/10/08 03:24:22;;;;;;;1999.90;999.90;;;9.50;99.90;;;;;;6709550;88;20205;-78
2022/10/08 03:34:24;;;;;;;1999.90;999.90;;;9.50;99.90;;;;;;6670230;89;20321;-79
2022/10/08 03:44:24;;;;;;;1999.90;999.90;;;9.50;99.90;;;;;;6669331;89;20619;-81
2022/10/08 03:54:25;;;;;;;1999.90;999.90;;;9.30;99.90;;;;;;6671598;89;20204;-81
2022/10/08 04:04:26;;;;;;;1999.90;999.90;;;9.40;99.90;;;;;;6668799;89;20188;-78
2022/10/08 04:14:26;;;;;;;1999.90;999.90;;;9.50;99.90;;;;;;6666507;89;20321;-79
2022/10/08 04:24:27;;;;;;;1999.90;999.90;;;9.60;99.90;;;;;;6666272;89;20578;-81
2022/10/08 04:34:28;;;;;;;1999.90;999.90;;;9.80;99.90;;;;;;6666707;89;20199;-80
2022/10/08 04:44:29;;;;;;;1999.90;999.90;;;9.80;99.90;;;;;;6670693;89;20210;-79
2022/10/08 04:54:29;;;;;;;1999.90;999.90;;;9.90;99.90;;;;;;6666703;89;20780;-79
2022/10/08 05:04:30;;;;;;;1999.90;999.90;;;9.90;99.90;;;;;;6666768;89;20175;-80
2022/10/08 05:14:30;;;;;;;1999.90;999.90;;;10.20;99.90;;;;;;6672764;89;20353;-82
2022/10/08 05:24:31;;;;;;;1999.90;999.90;;;10.50;99.90;;;;;;6671927;89;20315;-80
2022/10/08 05:34:31;;;;;;;1999.90;999.90;;;10.80;99.90;;;;;;6670303;89;20203;-81
2022/10/08 05:44:32;;;;;;;1999.90;999.90;;;11.10;99.90;;;;;;6664926;89;20350;-81
2022/10/08 05:54:32;;;;;;;1999.90;999.90;;;11.10;99.90;;;;;;6664743;89;20662;-80
2022/10/08 06:04:33;;;;;;;1999.90;999.90;;;11.20;99.90;;;;;;6665395;89;20301;-79
2022/10/08 06:14:33;;;;;;;1999.90;999.90;;;11.30;99.90;;;;;;6667715;89;20221;-80
2022/10/08 06:24:34;;;;;;;1999.90;999.90;;;11.60;99.90;;;;;;6665846;89;20241;-80
2022/10/08 06:34:35;;;;;;;1999.90;999.90;;;12.00;99.90;;;;;;6668613;88;20679;-80
2022/10/08 06:44:38;;;;;;;1999.90;999.90;;;12.30;99.90;;;;;;6670717;89;20507;-81
2022/10/08 06:54:39;;;;;;;1999.90;999.90;;;12.30;99.90;;;;;;6655449;88;20189;-80
2022/10/08 07:04:39;;;;;;;1999.90;999.90;;;12.10;99.90;;;;;;6650643;88;20329;-79
2022/10/08 07:14:40;;;;;;;1999.90;999.90;;;12.10;99.90;;;;;;6666754;89;20536;-81
2022/10/08 07:24:40;;;;;;;1999.90;999.90;;;12.20;99.90;;;;;;6655360;88;20214;-81
2022/10/08 07:34:41;;;;;;;1999.90;999.90;;;12.30;99.90;;;;;;6670070;89;20224;-81
2022/10/08 07:44:41;;;;;;;1999.90;999.90;;;12.80;99.90;;;;;;6663333;89;20196;-79
2022/10/08 07:54:44;;;;;;;1999.90;999.90;;;13.60;99.90;;;;;;6663556;89;20215;-79
2022/10/08 08:04:44;;;;;;;1999.90;999.90;;;13.70;99.90;;;;;;6667811;89;20177;-81
2022/10/08 08:14:45;;;;;;;1999.90;999.90;;;13.60;99.90;;;;;;6668684;88;21042;-79
2022/10/08 08:24:45;;;;;;;1999.90;999.90;;;13.90;99.90;;;;;;6663063;88;20209;-81
2022/10/08 08:34:46;;;;;;;1999.90;999.90;;;14.40;99.90;;;;;;6660464;88;20218;-80
2022/10/08 08:44:53;;;;;;;1999.90;999.90;;;14.90;99.90;;;;;;6657604;88;20247;-80
2022/10/08 08:54:54;;;;;;;1999.90;999.90;;;14.80;99.90;;;;;;6663931;89;20195;-81
2022/10/08 09:04:59;;;;;;;1999.90;999.90;;;14.80;99.90;;;;;;6665416;88;20725;-80
2022/10/08 09:15:01;;;;;;;1999.90;999.90;;;16.50;99.90;;;;;;6648129;89;20211;-80
2022/10/08 09:25:14;;;;;;;1999.90;999.90;;;16.70;99.90;;;;;;6641556;89;20193;-80
2022/10/08 09:35:15;;;;;;;1999.90;999.90;;;16.50;99.90;;;;;;6647412;89;20208;-80
2022/10/08 09:45:37;;;;;;;1999.90;999.90;;;17.60;99.90;;;;;;6651596;88;20198;-80
2022/10/08 09:55:37;;;;;;;1999.90;999.90;;;17.40;99.90;;;;;;6651211;88;20238;-81
2022/10/08 10:05:39;;;;;;;1999.90;999.90;;;18.00;99.90;;;;;;6647480;88;20633;-78
2022/10/08 10:15:45;;;;;;;1999.90;999.90;;;17.20;99.90;;;;;;6650720;88;20703;-81
2022/10/08 10:25:46;;;;;;;1999.90;999.90;;;17.10;99.90;;;;;;6648682;88;20185;-79
2022/10/08 10:35:58;;;;;;;1999.90;999.90;;;16.60;99.90;;;;;;6655250;88;20208;-79
2022/10/08 10:46:19;;;;;;;1999.90;999.90;;;16.10;99.90;;;;;;6655943;89;20169;-79
2022/10/08 10:56:21;;;;;;;1999.90;999.90;;;16.40;99.90;;;;;;6656451;88;20185;-81
2022/10/08 11:06:43;;;;;;;1999.90;999.90;;;17.10;99.90;;;;;;6659349;88;20185;-81
2022/10/08 11:16:58;;;;;;;1999.90;999.90;;;17.20;99.90;;;;;;6651145;89;20210;-79
2022/10/08 11:27:10;;;;;;;1999.90;999.90;;;18.90;99.90;;;;;;6651021;88;20172;-79
2022/10/08 11:37:14;;;;;;;1999.90;999.90;;;19.80;99.90;;;;;;6651988;88;20212;-79
2022/10/08 11:47:34;;;;;;;1999.90;999.90;;;18.00;99.90;;;;;;6644562;89;20307;-80
2022/10/08 11:57:35;;;;;;;1999.90;999.90;;;18.00;99.90;;;;;;6647716;88;20215;-80
2022/10/08 12:07:38;;;;;;;1999.90;999.90;;;20.10;99.90;;;;;;6647942;89;21031;-80
2022/10/08 12:17:56;;;;;;;1999.90;999.90;;;19.30;99.90;;;;;;6652859;89;20255;-78
2022/10/08 12:28:19;;;;;;;1999.90;999.90;;;17.80;99.90;;;;;;6650233;88;20362;-78
2022/10/08 12:38:51;;;;;;;1999.90;999.90;;;20.10;99.90;;;;;;6650634;88;20242;-80
2022/10/08 12:49:18;;;;;;;1999.90;999.90;;;20.80;97.30;;;;;;6666670;88;20371;-79
2022/10/08 12:59:21;;;;;;;1999.90;999.90;;;20.70;96.70;;;;;;6652435;88;20201;-80
2022/10/08 13:09:26;;;;;;;1999.90;999.90;;;21.40;97.20;;;;;;6642946;89;20231;-79
2022/10/08 13:19:36;;;;;;;1999.90;999.90;;;21.30;97.60;;;;;;6640496;89;20210;-79
2022/10/08 13:29:36;;;;;;;1999.90;999.90;;;19.40;99.90;;;;;;6644133;88;20199;-79
2022/10/08 13:39:48;;;;;;;1999.90;999.90;;;19.90;99.60;;;;;;6656255;88;20192;-80
2022/10/08 13:49:48;;;;;;;1999.90;999.90;;;19.70;99.00;;;;;;6656261;88;20203;-78
2022/10/08 13:59:49;;;;;;;1999.90;999.90;;;20.00;98.20;;;;;;6651856;88;20320;-79
2022/10/08 14:09:50;;;;;;;1999.90;999.90;;;20.20;97.30;;;;;;6645218;89;20527;-79
2022/10/08 14:19:53;;;;;;;1999.90;999.90;;;20.50;96.80;;;;;;6647043;89;20204;-79
2022/10/08 14:29:53;;;;;;;1999.90;999.90;;;20.30;95.90;;;;;;6647254;89;20218;-79
2022/10/08 14:39:54;;;;;;;1999.90;999.90;;;20.30;96.20;;;;;;6646054;89;20204;-81
2022/10/08 14:49:54;;;;;;;1999.90;999.90;;;19.60;97.40;;;;;;6699344;88;20231;-80
2022/10/08 14:59:55;;;;;;;1999.90;999.90;;;18.70;99.00;;;;;;6654749;89;20173;-79
2022/10/08 15:09:55;;;;;;;1999.90;999.90;;;18.80;98.10;;;;;;6660189;88;20193;-80
2022/10/08 15:19:57;;;;;;;1999.90;999.90;;;18.60;97.80;;;;;;6646872;89;20217;-79
2022/10/08 15:30:39;;;;;;;1999.90;999.90;;;18.90;97.40;;;;;;6669296;77;20337;-80
2022/10/08 15:40:40;;;;;;;1999.90;999.90;;;18.20;98.60;;;;;;6735882;87;20262;-79
2022/10/08 15:50:40;;;;;;;1999.90;999.90;;;18.10;97.10;;;;;;6747499;87;21101;-78
2022/10/08 16:00:41;;;;;;;1999.90;999.90;;;17.60;98.00;;;;;;6747654;87;20814;-78
2022/10/08 16:10:41;;;;;;;1999.90;999.90;;;17.40;97.70;;;;;;6753501;87;20184;-79
2022/10/08 16:20:42;;;;;;;1999.90;999.90;;;17.10;98.10;;;;;;6751834;87;20242;-78
2022/10/08 16:30:42;;;;;;;1999.90;999.90;;;16.80;98.70;;;;;;6753802;87;20200;-79
2022/10/08 16:40:43;;;;;;;1999.90;999.90;;;16.40;99.50;;;;;;6751481;87;20223;-79
2022/10/08 16:50:43;;;;;;;1999.90;999.90;;;15.90;99.90;;;;;;6754286;87;20184;-78
2022/10/08 17:00:44;;;;;;;1999.90;999.90;;;15.40;99.90;;;;;;6750188;87;20190;-77
2022/10/08 17:10:44;;;;;;;1999.90;999.90;;;15.10;99.90;;;;;;6743033;87;20193;-77
2022/10/08 17:20:48;;;;;;;1999.90;999.90;;;14.60;99.90;;;;;;6761838;87;20193;-78
2022/10/08 17:30:48;;;;;;;1999.90;999.90;;;14.30;99.90;;;;;;6747080;87;20731;-78
2022/10/08 17:40:49;;;;;;;1999.90;999.90;;;14.20;99.90;;;;;;6749643;87;20197;-77
2022/10/08 17:50:49;;;;;;;1999.90;999.90;;;13.90;99.90;;;;;;6748943;87;20204;-78
2022/10/08 18:00:50;;;;;;;1999.90;999.90;;;13.80;99.90;;;;;;6750377;87;20185;-76
2022/10/08 18:10:51;;;;;;;1999.90;999.90;;;13.50;99.90;;;;;;6749426;87;20195;-77
2022/10/08 18:20:56;;;;;;;1999.90;999.90;;;13.30;99.90;;;;;;6746915;87;20946;-77
2022/10/08 18:31:07;;;;;;;1999.90;999.90;;;13.20;99.90;;;;;;6743984;87;20198;-77
2022/10/08 18:41:17;;;;;;;1999.90;999.90;;;13.10;99.90;;;;;;6744442;87;20631;-79
2022/10/08 18:51:21;;;;;;;1999.90;999.90;;;13.00;99.90;;;;;;6743749;87;20191;-77
2022/10/08 19:01:24;;;;;;;1999.90;999.90;;;12.80;99.90;;;;;;6749390;87;20736;-77
2022/10/08 19:11:32;;;;;;;1999.90;999.90;;;12.60;99.90;;;;;;6755762;87;20220;-80
2022/10/08 19:21:34;;;;;;;1999.90;999.90;;;12.20;99.90;;;;;;6740543;88;20817;-77
2022/10/08 19:31:35;;;;;;;1999.90;999.90;;;12.20;99.90;;;;;;6737597;88;20771;-78
2022/10/08 19:41:36;;;;;;;1999.90;999.90;;;12.00;99.90;;;;;;6745337;87;20248;-77
2022/10/08 19:51:37;;;;;;;1999.90;999.90;;;11.80;99.90;;;;;;6747294;87;20196;-77
2022/10/08 20:01:39;;;;;;;1999.90;999.90;;;11.60;99.90;;;;;;6742713;87;20245;-77
2022/10/08 20:11:41;;;;;;;1999.90;999.90;;;11.40;99.90;;;;;;6748206;87;20253;-78
2022/10/08 20:21:41;;;;;;;1999.90;999.90;;;11.10;99.90;;;;;;6753204;87;20672;-78
2022/10/08 20:31:45;;;;;;;1999.90;999.90;;;10.90;99.90;;;;;;6752260;87;20270;-77
2022/10/08 20:41:46;;;;;;;1999.90;999.90;;;10.70;99.90;;;;;;6751516;87;20233;-77
2022/10/08 20:51:47;;;;;;;1999.90;999.90;;;10.50;99.90;;;;;;6754893;87;20185;-79
2022/10/08 21:01:49;;;;;;;1999.90;999.90;;;10.20;99.90;;;;;;6752187;87;20259;-78
2022/10/08 21:11:49;;;;;;;1999.90;999.90;;;9.70;99.90;;;;;;6756270;87;20287;-77
2022/10/08 21:21:51;;;;;;;1999.90;999.90;;;9.60;99.90;;;;;;6757298;87;20238;-78
2022/10/08 21:32:12;;;;;;;1999.90;999.90;;;9.50;99.90;;;;;;6767067;76;20189;-79
2022/10/08 21:42:12;;;;;;;1999.90;999.90;;;9.50;99.90;;;;;;6764864;87;20199;-79
2022/10/08 21:52:13;;;;;;;1999.90;999.90;;;9.60;99.90;;;;;;6761629;88;20278;-80
2022/10/08 22:02:14;;;;;;;1999.90;999.90;;;9.40;99.90;;;;;;6766726;87;20695;-79
2022/10/08 22:12:14;;;;;;;1999.90;999.90;;;8.90;99.90;;;;;;6761727;87;20233;-79
2022/10/08 22:22:15;;;;;;;1999.90;999.90;;;8.80;99.90;;;;;;6764402;87;20907;-80
2022/10/08 22:32:15;;;;;;;1999.90;999.90;;;8.60;99.90;;;;;;6749197;87;20215;-79
2022/10/08 22:42:16;;;;;;;1999.90;999.90;;;8.50;99.90;;;;;;6761174;87;20195;-79
2022/10/08 22:52:16;;;;;;;1999.90;999.90;;;8.60;99.90;;;;;;6751216;87;20307;-80
2022/10/08 23:02:17;;;;;;;1999.90;999.90;;;8.50;99.90;;;;;;6762259;88;20181;-79
2022/10/08 23:12:17;;;;;;;1999.90;999.90;;;8.40;99.90;;;;;;6767037;87;20278;-79
2022/10/08 23:22:18;;;;;;;1999.90;999.90;;;8.40;99.90;;;;;;6760613;88;20203;-81
2022/10/08 23:32:18;;;;;;;1999.90;999.90;;;8.10;99.90;;;;;;6760553;87;20520;-79
2022/10/08 23:42:19;;;;;;;1999.90;999.90;;;7.70;99.90;;;;;;6761143;87;20204;-79
2022/10/08 23:52:19;;;;;;;1999.90;999.90;;;7.60;99.90;;;;;;6759518;87;20580;-78
